Time;durP1;ratioP1;P1;durP2;ratioP2;P2;SDS_P1;SDS_P2;PMS_P1;PMS_P2;Temp;Humidity;BMP_temperature;BMP_pressure;BME280_temperature;BME280_humidity;BME280_pressure;Samples;Min_cycle;Max_cycle;Signal;HPM_P1;HPM_P2
2022/07/06 00:02:29;;;;;;;0.57;0.20;;;;;;;22.78;38.45;102551.09;16139883;19;130760;-55
2022/07/06 00:07:51;;;;;;;0.85;0.40;;;;;;;22.77;38.37;102546.66;16145257;19;128962;-54
2022/07/06 00:13:13;;;;;;;0.50;0.20;;;;;;;22.74;38.49;102551.59;16144111;19;129837;-54
2022/07/06 00:18:35;;;;;;;2.15;0.25;;;;;;;22.74;38.60;102542.38;16139534;19;128997;-57
2022/07/06 00:23:57;;;;;;;0.38;0.13;;;;;;;22.73;38.51;102549.91;16142916;19;130058;-55
2022/07/06 00:29:19;;;;;;;0.32;0.10;;;;;;;22.72;38.61;102552.91;16143211;19;129450;-55
2022/07/06 00:34:41;;;;;;;0.00;0.00;;;;;;;22.70;38.55;102561.50;16141925;19;129687;-56
2022/07/06 00:40:03;;;;;;;0.50;0.20;;;;;;;22.70;38.44;102544.78;16140431;19;129405;-53
2022/07/06 00:45:26;;;;;;;0.60;0.13;;;;;;;22.68;38.68;102540.53;16141467;19;131279;-53
2022/07/06 00:50:48;;;;;;;0.10;0.10;;;;;;;22.68;38.73;102554.47;16140581;19;129851;-56
2022/07/06 00:56:10;;;;;;;0.30;0.10;;;;;;;22.66;38.64;102549.13;16135140;19;130332;-57
2022/07/06 01:01:32;;;;;;;0.30;0.17;;;;;;;22.67;39.02;102545.25;16135392;19;131446;-58
2022/07/06 01:06:56;;;;;;;4.32;0.30;;;;;;;22.70;38.81;102553.16;16139275;19;130021;-55
2022/07/06 01:12:18;;;;;;;2.80;0.40;;;;;;;22.72;38.67;102538.94;16141350;19;129742;-57
2022/07/06 01:17:40;;;;;;;1.20;0.20;;;;;;;22.70;38.70;102539.19;16136173;19;129549;-57
2022/07/06 01:23:02;;;;;;;1.13;0.45;;;;;;;22.69;38.72;102540.28;16133561;19;130009;-55
2022/07/06 01:28:24;;;;;;;0.50;0.30;;;;;;;22.68;38.72;102530.22;16138352;19;129080;-55
2022/07/06 01:33:48;;;;;;;0.38;0.25;;;;;;;22.66;38.59;102528.75;16133761;19;129792;-54
2022/07/06 01:39:10;;;;;;;0.20;0.10;;;;;;;22.65;38.66;102533.47;16137604;19;130230;-54
2022/07/06 01:44:32;;;;;;;1.05;0.30;;;;;;;22.64;38.87;102533.72;16137765;19;129657;-56
2022/07/06 01:50:01;;;;;;;2.93;0.27;;;;;;;22.62;38.79;102536.75;16132709;19;130194;-56
2022/07/06 01:55:23;;;;;;;1.10;0.30;;;;;;;22.60;38.80;102538.91;16138903;19;129324;-54
2022/07/06 02:00:45;;;;;;;0.75;0.20;;;;;;;22.58;38.51;102524.34;16130466;19;129772;-56
2022/07/06 02:06:07;;;;;;;0.43;0.20;;;;;;;22.57;38.90;102529.09;16135771;19;129799;-56
2022/07/06 02:11:29;;;;;;;0.65;0.30;;;;;;;22.57;38.97;102529.09;16137349;19;129021;-53
2022/07/06 02:16:51;;;;;;;0.20;0.20;;;;;;;22.57;38.77;102531.00;16134201;19;130503;-54
2022/07/06 02:22:12;;;;;;;0.63;0.30;;;;;;;22.55;38.69;102527.59;16131553;19;129348;-55
2022/07/06 02:27:34;;;;;;;1.48;0.20;;;;;;;22.55;39.17;102535.97;16135182;19;129932;-53
2022/07/06 02:32:56;;;;;;;0.40;0.17;;;;;;;22.54;38.88;102528.69;16132840;19;130323;-54
2022/07/06 02:38:18;;;;;;;0.57;0.35;;;;;;;22.52;38.98;102519.72;16132926;19;129239;-56
2022/07/06 02:43:40;;;;;;;3.08;0.20;;;;;;;22.50;39.02;102519.09;16135808;19;130301;-57
2022/07/06 02:49:02;;;;;;;3.50;0.40;;;;;;;22.51;38.93;102515.22;16131317;19;129590;-56
2022/07/06 02:54:24;;;;;;;0.20;0.20;;;;;;;22.48;38.94;102513.72;16128195;19;129194;-57
2022/07/06 02:59:45;;;;;;;2.88;0.30;;;;;;;22.47;39.14;102523.19;16130122;19;130258;-57
2022/07/06 03:05:08;;;;;;;0.52;0.25;;;;;;;22.48;38.82;102527.69;16130855;19;130151;-52
2022/07/06 03:10:29;;;;;;;0.45;0.30;;;;;;;22.48;38.68;102524.06;16132894;19;130653;-56
2022/07/06 03:15:51;;;;;;;0.25;0.17;;;;;;;22.46;39.22;102526.22;16135617;19;129293;-56
2022/07/06 03:21:13;;;;;;;0.30;0.20;;;;;;;22.45;38.68;102528.16;16146149;19;131252;-55
2022/07/06 03:26:35;;;;;;;0.30;0.20;;;;;;;22.44;38.92;102535.66;16147850;19;130076;-54
2022/07/06 03:31:56;;;;;;;0.22;0.20;;;;;;;22.42;38.89;102532.25;16146372;19;129897;-55
2022/07/06 03:37:18;;;;;;;0.32;0.17;;;;;;;22.42;38.93;102531.41;16147380;19;129637;-57
2022/07/06 03:42:40;;;;;;;0.20;0.20;;;;;;;22.41;39.12;102538.91;16143896;19;129199;-55
2022/07/06 03:48:02;;;;;;;2.92;0.30;;;;;;;22.42;38.92;102535.03;16143384;19;129222;-53
2022/07/06 03:53:24;;;;;;;1.40;0.40;;;;;;;22.41;38.88;102538.91;16142997;19;129154;-50
2022/07/06 03:58:46;;;;;;;2.13;0.25;;;;;;;22.41;38.69;102529.72;16141227;19;129855;-56
2022/07/06 04:04:08;;;;;;;1.48;0.20;;;;;;;22.40;38.93;102530.78;16146715;19;130674;-54
2022/07/06 04:09:29;;;;;;;1.58;0.20;;;;;;;22.38;39.00;102536.63;16145968;19;130544;-55
2022/07/06 04:14:51;;;;;;;1.05;0.30;;;;;;;22.36;38.99;102526.75;16143073;19;129407;-55
2022/07/06 04:20:13;;;;;;;0.98;0.38;;;;;;;22.36;39.08;102532.34;16136948;19;129984;-54
2022/07/06 04:25:35;;;;;;;0.77;0.47;;;;;;;22.35;38.99;102525.03;16138870;19;128925;-54
2022/07/06 04:30:58;;;;;;;1.67;0.22;;;;;;;22.36;39.32;102532.34;16141448;19;130788;-55
2022/07/06 04:36:20;;;;;;;1.25;0.32;;;;;;;22.34;39.05;102528.94;16143481;19;130035;-51
2022/07/06 04:41:42;;;;;;;1.33;0.20;;;;;;;22.33;39.08;102528.09;16140420;19;129590;-56
2022/07/06 04:47:04;;;;;;;0.22;0.20;;;;;;;22.34;38.83;102538.16;16139798;19;132401;-54
2022/07/06 04:52:27;;;;;;;1.83;0.25;;;;;;;22.32;39.44;102526.38;16136765;19;129437;-56
2022/07/06 04:57:49;;;;;;;0.65;0.20;;;;;;;22.32;39.33;102526.38;16137924;19;129548;-51
2022/07/06 05:03:10;;;;;;;0.20;0.10;;;;;;;22.31;38.95;102526.63;16135807;19;129421;-54
2022/07/06 05:08:33;;;;;;;0.35;0.10;;;;;;;22.31;39.15;102533.03;16141265;19;129128;-55
2022/07/06 05:13:55;;;;;;;2.53;0.20;;;;;;;22.31;39.43;102535.81;16139669;19;129594;-56
2022/07/06 05:19:16;;;;;;;8.90;0.80;;;;;;;22.32;39.00;102545.06;16133611;19;130537;-55
2022/07/06 05:24:38;;;;;;;2.17;0.30;;;;;;;22.33;39.29;102539.22;16138156;19;129652;-56
2022/07/06 05:30:00;;;;;;;4.68;0.45;;;;;;;22.35;38.92;102542.66;16134160;19;129281;-55
2022/07/06 05:35:22;;;;;;;2.60;0.60;;;;;;;22.39;39.40;102540.25;16138023;19;129438;-55
2022/07/06 05:41:04;;;;;;;4.05;0.50;;;;;;;22.40;39.03;102544.72;16133961;19;131422;-56
2022/07/06 05:46:26;;;;;;;3.65;0.40;;;;;;;22.40;39.09;102556.72;16128685;19;129801;-57
2022/07/06 05:51:49;;;;;;;2.70;0.35;;;;;;;22.40;39.07;102556.72;16137722;19;129530;-56
2022/07/06 05:57:11;;;;;;;1.58;0.50;;;;;;;22.40;39.30;102550.31;16135654;19;131130;-55
2022/07/06 06:02:40;;;;;;;1.30;0.63;;;;;;;22.42;39.08;102554.56;16129894;19;129610;-56
2022/07/06 06:08:02;;;;;;;3.30;0.40;;;;;;;22.39;39.18;102566.19;16131815;19;129528;-55
2022/07/06 06:13:24;;;;;;;2.13;0.40;;;;;;;22.39;38.96;102565.34;16135949;19;129760;-54
2022/07/06 06:18:46;;;;;;;1.90;0.40;;;;;;;22.41;38.99;102563.16;16132188;19;130002;-57
2022/07/06 06:24:08;;;;;;;3.17;0.82;;;;;;;22.42;39.06;102565.72;16130269;19;130350;-57
2022/07/06 06:29:31;;;;;;;3.13;0.30;;;;;;;22.46;39.10;102570.84;16136488;19;129999;-54
2022/07/06 06:34:52;;;;;;;1.33;0.50;;;;;;;22.49;38.91;102559.22;16136622;19;129032;-58
2022/07/06 06:40:14;;;;;;;3.28;0.40;;;;;;;22.53;39.37;102563.22;16136177;19;129337;-54
2022/07/06 06:45:36;;;;;;;1.45;0.50;;;;;;;22.53;38.91;102571.59;16138005;19;129329;-58
2022/07/06 06:50:58;;;;;;;1.40;0.35;;;;;;;22.53;39.20;102566.00;16159454;19;129910;-58
2022/07/06 06:56:20;;;;;;;1.25;0.60;;;;;;;22.52;39.35;102575.50;16171919;19;129295;-59
2022/07/06 07:01:42;;;;;;;3.90;0.77;;;;;;;22.53;39.03;102579.97;16170038;19;128928;-58
2022/07/06 07:07:03;;;;;;;1.15;0.30;;;;;;;22.51;39.18;102579.38;16167648;19;130461;-59
2022/07/06 07:12:26;;;;;;;1.90;0.35;;;;;;;22.51;39.46;102582.16;16167854;19;129645;-58
2022/07/06 07:17:48;;;;;;;2.88;0.30;;;;;;;22.51;39.15;102579.38;16166160;19;129634;-57
2022/07/06 07:23:10;;;;;;;1.17;0.40;;;;;;;22.52;39.13;102578.28;16162942;19;129080;-57
2022/07/06 07:28:32;;;;;;;1.02;0.40;;;;;;;22.50;39.30;102572.09;16166371;19;131058;-58
2022/07/06 07:33:56;;;;;;;1.08;0.40;;;;;;;22.50;39.14;102578.50;16166334;19;129119;-58
2022/07/06 07:39:19;;;;;;;0.80;0.40;;;;;;;22.50;39.01;102575.72;16168162;19;128987;-56
2022/07/06 07:44:41;;;;;;;0.50;0.35;;;;;;;22.50;39.12;102572.09;16161099;19;129094;-57
2022/07/06 07:50:04;;;;;;;0.30;0.28;;;;;;;22.49;39.22;102560.06;16167165;19;129155;-58
2022/07/06 07:55:26;;;;;;;1.02;0.30;;;;;;;22.49;39.33;102564.81;16161284;19;128918;-57
2022/07/06 08:01:04;;;;;;;2.13;0.32;;;;;;;22.50;39.01;102560.94;16148384;19;129267;-57
2022/07/06 08:06:25;;;;;;;1.17;0.30;;;;;;;22.50;39.15;102566.50;16143466;19;129395;-56
2022/07/06 08:11:47;;;;;;;1.05;0.40;;;;;;;22.48;39.30;102558.34;16146887;19;130015;-57
2022/07/06 08:17:09;;;;;;;0.70;0.30;;;;;;;22.48;39.05;102560.31;16146263;19;130042;-58
2022/07/06 08:22:31;;;;;;;0.95;0.40;;;;;;;22.49;39.03;102556.44;16144417;19;129402;-58
2022/07/06 08:27:53;;;;;;;2.53;0.40;;;;;;;22.48;39.17;102554.72;16147171;19;129809;-55
2022/07/06 08:33:14;;;;;;;0.73;0.20;;;;;;;22.48;38.66;102551.94;16145574;19;129177;-57
2022/07/06 08:38:36;;;;;;;0.85;0.20;;;;;;;22.47;38.83;102551.06;16143243;19;129778;-57
2022/07/06 08:43:58;;;;;;;1.17;0.40;;;;;;;22.47;38.89;102550.22;16140834;19;130302;-54
2022/07/06 08:49:21;;;;;;;1.20;0.30;;;;;;;22.48;38.84;102533.25;16142825;19;130381;-57
2022/07/06 08:54:43;;;;;;;1.38;0.30;;;;;;;22.49;38.95;102531.34;16142381;19;129596;-56
2022/07/06 09:00:08;;;;;;;1.48;0.30;;;;;;;22.48;39.23;102533.25;16138080;19;129246;-58
2022/07/06 09:05:32;;;;;;;1.03;0.30;;;;;;;22.48;38.77;102527.69;16144977;19;129604;-58
2022/07/06 09:10:54;;;;;;;1.67;0.40;;;;;;;22.48;38.76;102529.63;16143646;19;129629;-56
2022/07/06 09:16:17;;;;;;;1.27;0.30;;;;;;;22.49;38.68;102531.34;16140603;19;129323;-56
2022/07/06 09:21:58;;;;;;;0.73;0.30;;;;;;;22.48;38.95;102529.63;16143449;19;129244;-56
2022/07/06 09:27:22;;;;;;;0.63;0.20;;;;;;;22.49;38.38;102534.13;16144012;19;129626;-58
2022/07/06 09:32:47;;;;;;;0.63;0.20;;;;;;;22.49;38.81;102550.84;16143525;19;129565;-57
2022/07/06 09:38:13;;;;;;;;;;;;;;;22.46;38.79;102554.09;16142732;19;129617;-55
2022/07/06 09:43:36;;;;;;;1.35;0.38;;;;;;;22.47;38.51;102551.06;16138128;19;129542;-57
2022/07/06 09:48:59;;;;;;;0.50;0.38;;;;;;;22.47;38.45;102544.66;16142736;19;128894;-55
2022/07/06 09:54:22;;;;;;;1.80;0.25;;;;;;;22.48;38.46;102535.19;16142967;19;129901;-56
2022/07/06 09:59:51;;;;;;;1.08;0.30;;;;;;;22.49;38.38;102536.91;16135986;19;128968;-55
2022/07/06 10:05:17;;;;;;;0.85;0.10;;;;;;;22.48;38.60;102547.19;16132998;19;131152;-58
2022/07/06 10:10:40;;;;;;;0.93;0.13;;;;;;;22.48;38.30;102552.78;16139071;19;130120;-56
2022/07/06 10:16:02;;;;;;;0.93;0.32;;;;;;;22.49;38.39;102553.66;16138923;19;129946;-58
2022/07/06 10:21:24;;;;;;;0.50;0.20;;;;;;;22.48;38.33;102552.78;16136938;19;128990;-54
2022/07/06 10:26:47;;;;;;;0.98;0.20;;;;;;;22.49;38.36;102551.69;16138765;19;129716;-53
2022/07/06 10:32:10;;;;;;;0.73;0.25;;;;;;;22.51;38.56;102555.09;16138313;19;129619;-56
2022/07/06 10:37:33;;;;;;;1.75;0.40;;;;;;;22.52;38.56;102547.59;16135895;19;130477;-57
2022/07/06 10:43:00;;;;;;;4.47;0.20;;;;;;;22.53;38.51;102540.91;16130296;19;132119;-58
2022/07/06 10:48:22;;;;;;;2.17;0.30;;;;;;;22.54;38.64;102537.91;16136686;19;130251;-54
2022/07/06 10:53:44;;;;;;;1.42;0.52;;;;;;;22.58;38.91;102536.38;16137681;19;128863;-57
2022/07/06 10:59:11;;;;;;;3.30;0.95;;;;;;;22.62;38.81;102535.88;16132065;19;130157;-56
2022/07/06 11:04:33;;;;;;;1.58;0.57;;;;;;;22.64;38.86;102531.78;16123588;19;129795;-56
2022/07/06 11:09:59;;;;;;;0.50;0.43;;;;;;;22.69;38.67;102525.50;16133060;19;129144;-55
2022/07/06 11:16:05;;;;;;;2.45;0.43;;;;;;;22.73;38.74;102516.41;16132773;19;129258;-57
2022/07/06 11:21:39;;;;;;;4.85;0.47;;;;;;;22.79;38.84;102516.53;16127859;19;129540;-57
2022/07/06 11:27:01;;;;;;;0.82;0.47;;;;;;;22.81;38.70;102517.16;16135272;19;129558;-56
2022/07/06 11:32:25;;;;;;;6.38;0.68;;;;;;;22.82;38.68;102518.88;16134486;19;129515;-58
2022/07/06 11:37:47;;;;;;;2.65;0.68;;;;;;;22.84;38.76;102517.53;16145201;19;129413;-54
2022/07/06 11:43:09;;;;;;;3.22;0.55;;;;;;;22.86;38.56;102515.38;16147844;19;129242;-55
2022/07/06 11:48:31;;;;;;;7.05;0.32;;;;;;;22.88;38.68;102509.56;16150064;19;129953;-56
2022/07/06 11:53:55;;;;;;;3.22;0.40;;;;;;;22.87;38.66;102505.06;16150573;19;129248;-58
2022/07/06 11:59:23;;;;;;;1.92;0.50;;;;;;;22.86;38.72;102498.63;16145580;19;129590;-57
2022/07/06 12:04:45;;;;;;;1.83;0.57;;;;;;;22.84;38.20;102492.41;16143601;19;129537;-57
2022/07/06 12:10:09;;;;;;;3.92;0.70;;;;;;;22.84;38.44;102474.84;16147354;19;131537;-58
2022/07/06 12:15:30;;;;;;;0.85;0.30;;;;;;;22.83;38.50;102481.50;16148748;19;131151;-58
2022/07/06 12:20:52;;;;;;;5.97;0.65;;;;;;;22.83;38.34;102464.75;16147634;19;129365;-56
2022/07/06 12:26:16;;;;;;;5.75;0.50;;;;;;;22.83;38.42;102476.75;16147165;19;129415;-57
2022/07/06 12:31:44;;;;;;;3.83;0.77;;;;;;;22.85;38.79;102485.75;16146492;19;130290;-56
2022/07/06 12:37:08;;;;;;;3.97;0.50;;;;;;;22.85;38.40;102473.75;16145573;19;129030;-56
2022/07/06 12:42:30;;;;;;;2.88;0.40;;;;;;;22.85;38.73;102462.59;16145208;19;129204;-54
2022/07/06 12:48:05;;;;;;;2.20;0.50;;;;;;;22.88;38.69;102464.91;16144420;19;130040;-57
2022/07/06 12:53:27;;;;;;;2.78;0.40;;;;;;;22.89;38.72;102472.19;16143880;19;129334;-59
2022/07/06 12:58:57;;;;;;;2.15;0.50;;;;;;;22.92;38.96;102471.72;16144047;19;129054;-57
2022/07/06 13:04:20;;;;;;;2.97;0.30;;;;;;;22.88;38.95;102462.13;16140077;19;132823;-57
2022/07/06 13:09:41;;;;;;;4.18;0.75;;;;;;;22.86;38.71;102461.50;16143199;19;129566;-55
2022/07/06 13:15:06;;;;;;;1.30;0.43;;;;;;;22.85;38.89;102457.84;16145321;19;129466;-57
2022/07/06 13:20:29;;;;;;;0.97;0.30;;;;;;;22.85;38.81;102468.19;16137517;19;129180;-57
2022/07/06 13:25:51;;;;;;;1.33;0.45;;;;;;;22.85;38.81;102468.19;16139151;19;128991;-54
2022/07/06 13:31:14;;;;;;;2.20;0.30;;;;;;;22.86;38.73;102464.28;16142103;19;129496;-55
2022/07/06 13:36:36;;;;;;;1.30;0.30;;;;;;;22.85;38.89;102457.84;16141793;19;130101;-55
2022/07/06 13:41:58;;;;;;;2.75;0.40;;;;;;;22.87;39.00;102455.69;16141351;19;130374;-57
2022/07/06 13:47:20;;;;;;;1.27;0.40;;;;;;;22.87;38.61;102446.47;16141467;19;129957;-54
2022/07/06 13:52:42;;;;;;;2.10;0.40;;;;;;;22.88;38.52;102435.06;16140831;19;129821;-56
2022/07/06 13:58:03;;;;;;;1.02;0.32;;;;;;;22.89;38.68;102422.81;16140674;19;129076;-57
2022/07/06 14:03:29;;;;;;;1.20;0.40;;;;;;;22.89;38.58;102414.44;16134433;19;128947;-55
2022/07/06 14:08:51;;;;;;;3.83;0.70;;;;;;;22.91;38.68;102414.22;16140804;19;129972;-57
2022/07/06 14:14:13;;;;;;;0.40;0.22;;;;;;;22.93;38.32;102402.84;16140009;19;130736;-57
2022/07/06 14:19:35;;;;;;;1.13;0.38;;;;;;;22.91;38.51;102389.09;16129111;19;129324;-58
2022/07/06 14:24:57;;;;;;;0.80;0.40;;;;;;;22.92;38.62;102396.38;16133759;19;130343;-55
2022/07/06 14:30:19;;;;;;;0.85;0.30;;;;;;;22.94;38.41;102387.78;16137625;19;129623;-58
2022/07/06 14:35:44;;;;;;;4.47;0.40;;;;;;;22.98;38.76;102398.22;16137060;19;128848;-56
2022/07/06 14:41:06;;;;;;;2.05;0.50;;;;;;;23.02;38.80;102395.81;16137660;19;130055;-54
2022/07/06 14:46:27;;;;;;;1.75;0.52;;;;;;;23.05;38.92;102387.78;16131853;19;130371;-59
2022/07/06 14:51:49;;;;;;;1.42;0.50;;;;;;;23.11;38.91;102385.13;16136466;19;131019;-54
2022/07/06 14:57:11;;;;;;;3.05;0.40;;;;;;;23.12;39.02;102384.88;16136882;19;132463;-58
2022/07/06 15:02:33;;;;;;;1.95;0.60;;;;;;;23.14;38.84;102367.91;16131090;19;129352;-55
2022/07/06 15:07:55;;;;;;;2.95;0.80;;;;;;;23.14;38.86;102365.13;16135046;19;129039;-55
2022/07/06 15:13:17;;;;;;;1.02;0.70;;;;;;;23.13;38.77;102380.16;16144131;19;129894;-56
2022/07/06 15:18:39;;;;;;;2.95;0.75;;;;;;;23.10;38.79;102380.66;16146367;19;129395;-55
2022/07/06 15:24:01;;;;;;;3.63;0.65;;;;;;;23.07;38.76;102368.03;16147280;19;129122;-55
2022/07/06 15:29:23;;;;;;;1.95;0.68;;;;;;;23.07;38.45;102361.59;16147424;19;130215;-56
2022/07/06 15:34:44;;;;;;;1.23;0.50;;;;;;;23.05;38.87;102362.66;16147726;19;129565;-54
2022/07/06 15:40:11;;;;;;;3.45;0.88;;;;;;;23.04;38.99;102354.56;16149441;19;129420;-55
2022/07/06 15:45:33;;;;;;;5.15;0.73;;;;;;;23.02;39.03;102356.72;16142588;19;129080;-55
2022/07/06 15:50:57;;;;;;;6.07;0.90;;;;;;;23.02;39.22;102349.19;16144734;19;129034;-54
2022/07/06 15:56:19;;;;;;;6.40;0.90;;;;;;;23.02;39.32;102335.22;16145218;19;129548;-57
2022/07/06 16:01:41;;;;;;;8.13;1.40;;;;;;;23.05;40.39;102328.34;16142302;19;131613;-56
2022/07/06 16:07:03;;;;;;;9.50;1.70;;;;;;;23.08;40.83;102313.03;16146622;19;129607;-57
2022/07/06 16:12:45;;;;;;;5.88;1.08;;;;;;;23.10;40.40;102310.84;16146321;19;129792;-58
2022/07/06 16:18:07;;;;;;;8.18;1.30;;;;;;;23.09;41.05;102304.41;16142897;19;131408;-56
2022/07/06 16:23:29;;;;;;;3.30;1.10;;;;;;;23.11;41.30;102304.19;16140673;19;129451;-55
2022/07/06 16:28:51;;;;;;;5.97;1.02;;;;;;;23.10;41.45;102302.47;16144114;19;130215;-57
2022/07/06 16:34:13;;;;;;;5.10;1.17;;;;;;;23.10;41.39;102285.75;16143666;19;130822;-56
2022/07/06 16:39:35;;;;;;;3.55;1.00;;;;;;;23.12;41.46;102283.56;16147297;19;130363;-58
2022/07/06 16:44:56;;;;;;;5.65;1.08;;;;;;;23.13;41.57;102274.09;16141523;19;129406;-58
2022/07/06 16:50:18;;;;;;;3.75;1.10;;;;;;;23.15;41.53;102263.50;16144087;19;129558;-56
2022/07/06 16:55:40;;;;;;;6.53;0.82;;;;;;;23.17;41.49;102262.19;16143443;19;131854;-57
2022/07/06 17:01:02;;;;;;;7.03;1.42;;;;;;;23.20;41.64;102269.22;16138537;19;128944;-54
2022/07/06 17:06:26;;;;;;;3.78;1.08;;;;;;;23.20;41.77;102270.03;16139458;19;129867;-57
2022/07/06 17:11:48;;;;;;;4.50;1.10;;;;;;;23.19;41.34;102265.59;16146073;19;129446;-55
2022/07/06 17:17:10;;;;;;;6.40;1.15;;;;;;;23.18;41.79;102263.03;16140968;19;129485;-58
2022/07/06 17:22:34;;;;;;;8.70;1.23;;;;;;;23.21;41.81;102265.31;16140898;19;130315;-56
2022/07/06 17:27:56;;;;;;;9.93;1.13;;;;;;;23.20;41.64;102258.88;16128604;19;129971;-56
2022/07/06 17:33:18;;;;;;;9.02;1.33;;;;;;;23.25;41.93;102257.31;16137271;19;130778;-54
2022/07/06 17:38:40;;;;;;;9.05;1.30;;;;;;;23.28;41.71;102266.03;16140725;19;130027;-53
2022/07/06 17:44:02;;;;;;;9.60;1.27;;;;;;;23.30;41.76;102274.19;16137344;19;129722;-55
2022/07/06 17:49:23;;;;;;;7.60;1.10;;;;;;;23.29;41.94;102264.09;16134898;19;129705;-54
2022/07/06 17:54:46;;;;;;;8.98;1.20;;;;;;;23.28;41.46;102266.03;16138915;19;129314;-52
2022/07/06 18:00:14;;;;;;;6.63;1.25;;;;;;;23.25;41.45;102266.53;16138905;19;129530;-56
2022/07/06 18:05:37;;;;;;;3.42;1.23;;;;;;;23.22;41.37;102250.28;16137957;19;129779;-57
2022/07/06 18:11:05;;;;;;;5.60;1.20;;;;;;;23.23;41.41;102242.75;16137934;19;129356;-54
2022/07/06 18:16:28;;;;;;;12.45;1.52;;;;;;;23.22;41.28;102235.44;16135177;19;129503;-55
2022/07/06 18:21:51;;;;;;;4.15;1.23;;;;;;;23.20;40.93;102239.34;16139356;19;131129;-56
2022/07/06 18:27:12;;;;;;;5.45;0.98;;;;;;;23.18;41.55;102240.69;16133229;19;129584;-56
2022/07/06 18:32:34;;;;;;;4.60;1.10;;;;;;;23.17;41.16;102241.78;16138072;19;128890;-56
2022/07/06 18:37:56;;;;;;;4.78;0.80;;;;;;;23.16;41.20;102240.06;16132395;19;129525;-57
2022/07/06 18:43:18;;;;;;;1.52;0.60;;;;;;;23.14;41.25;102242.28;16135745;19;129348;-53
2022/07/06 18:48:40;;;;;;;4.63;1.00;;;;;;;23.14;41.06;102225.53;16134283;19;129463;-55
2022/07/06 18:54:01;;;;;;;4.43;0.95;;;;;;;23.14;41.33;102236.72;16137016;19;129296;-55
2022/07/06 18:59:23;;;;;;;3.75;0.70;;;;;;;23.13;40.92;102232.22;16133620;19;129720;-56
2022/07/06 19:04:45;;;;;;;4.32;1.30;;;;;;;23.12;41.09;102222.16;16133040;19;129360;-53
2022/07/06 19:10:08;;;;;;;4.85;0.70;;;;;;;23.10;41.15;102227.13;16133449;19;129305;-57
2022/07/06 19:15:30;;;;;;;3.97;0.82;;;;;;;23.10;40.91;102232.69;16132460;19;129593;-55
2022/07/06 19:20:51;;;;;;;4.63;0.60;;;;;;;23.08;41.20;102227.34;16134597;19;130107;-56
2022/07/06 19:26:13;;;;;;;4.10;0.70;;;;;;;23.09;41.13;102237.41;16129826;19;129890;-56
2022/07/06 19:31:36;;;;;;;7.15;0.93;;;;;;;23.10;41.63;102227.94;16132458;19;129474;-53
2022/07/06 19:36:59;;;;;;;18.60;1.33;;;;;;;23.09;41.32;102237.41;16132104;19;129225;-53
2022/07/06 19:42:20;;;;;;;2.13;0.73;;;;;;;23.09;41.16;102239.38;16130650;19;129725;-55
2022/07/06 19:47:42;;;;;;;7.50;0.80;;;;;;;23.08;41.16;102221.75;16125483;19;129588;-53
2022/07/06 19:53:04;;;;;;;3.60;0.80;;;;;;;23.08;41.31;102223.72;16129632;19;129829;-51
2022/07/06 19:58:27;;;;;;;16.88;1.35;;;;;;;23.08;41.60;102223.72;16134097;19;130385;-55
2022/07/06 20:03:49;;;;;;;9.80;0.82;;;;;;;23.04;41.56;102231.75;16140100;19;130500;-55
2022/07/06 20:09:12;;;;;;;10.77;0.80;;;;;;;23.02;41.73;102234.75;16143851;19;129765;-57
2022/07/06 20:14:34;;;;;;;12.25;1.02;;;;;;;23.01;41.34;102244.25;16143010;19;130309;-52
2022/07/06 20:19:56;;;;;;;10.13;1.05;;;;;;;23.00;41.38;102236.97;16140597;19;129805;-57
2022/07/06 20:25:18;;;;;;;7.43;0.70;;;;;;;22.99;41.53;102237.19;16138455;19;129934;-56
2022/07/06 20:30:40;;;;;;;8.15;1.02;;;;;;;22.98;41.38;102239.16;16138120;19;129237;-57
2022/07/06 20:36:04;;;;;;;4.93;0.60;;;;;;;22.94;41.55;102237.94;16139107;19;130079;-56
2022/07/06 20:41:26;;;;;;;8.18;0.90;;;;;;;22.93;41.49;102221.44;16130822;19;129074;-57
2022/07/06 20:46:47;;;;;;;4.68;0.52;;;;;;;22.92;41.46;102223.38;16127225;19;130382;-57
2022/07/06 20:52:10;;;;;;;1.48;0.50;;;;;;;22.92;41.58;102222.53;16132170;19;130807;-56
2022/07/06 20:57:32;;;;;;;4.28;0.50;;;;;;;22.89;41.47;102232.22;16132777;19;130255;-55
2022/07/06 21:02:53;;;;;;;4.32;0.75;;;;;;;22.88;41.42;102227.72;16129696;19;129952;-57
2022/07/06 21:08:15;;;;;;;1.27;0.50;;;;;;;22.86;41.28;102213.16;16126329;19;130040;-57
2022/07/06 21:13:37;;;;;;;2.70;0.50;;;;;;;22.84;41.61;102205.03;16134549;19;130844;-56
2022/07/06 21:18:59;;;;;;;1.85;0.40;;;;;;;22.83;41.60;102208.06;16122078;19;131714;-56
2022/07/06 21:24:20;;;;;;;1.08;0.40;;;;;;;22.82;41.36;102223.09;16129907;19;131710;-56
2022/07/06 21:29:42;;;;;;;3.72;0.40;;;;;;;22.81;41.38;102210.25;16134087;19;132354;-54
2022/07/06 21:35:04;;;;;;;4.00;0.63;;;;;;;22.80;41.58;102208.56;16134428;19;129800;-56
2022/07/06 21:40:27;;;;;;;3.40;0.20;;;;;;;22.80;41.55;102203.84;16133804;19;131466;-58
2022/07/06 21:45:51;;;;;;;1.13;0.50;;;;;;;22.80;41.59;102191.81;16130706;19;130889;-57
2022/07/06 21:51:13;;;;;;;1.35;0.22;;;;;;;22.78;41.51;102182.81;16131302;19;129980;-56
2022/07/06 21:56:34;;;;;;;0.85;0.20;;;;;;;22.77;41.47;102190.38;16132296;19;130081;-54
2022/07/06 22:01:56;;;;;;;2.15;0.40;;;;;;;22.77;41.58;102186.75;16130850;19;131218;-56
2022/07/06 22:07:18;;;;;;;1.75;0.20;;;;;;;22.76;41.52;102180.28;16125302;19;131364;-57
2022/07/06 22:12:43;;;;;;;1.35;0.20;;;;;;;22.76;41.21;102173.88;16129227;19;129785;-56
2022/07/06 22:18:06;;;;;;;2.28;0.40;;;;;;;22.74;41.48;102177.75;16124242;19;129353;-57
2022/07/06 22:23:28;;;;;;;1.45;0.20;;;;;;;22.73;41.90;102181.63;16124420;19;130221;-56
2022/07/06 22:28:51;;;;;;;2.75;0.20;;;;;;;22.73;41.53;102158.47;16129957;19;129996;-55
2022/07/06 22:34:13;;;;;;;0.32;0.20;;;;;;;22.71;41.49;102161.50;16129085;19;130258;-56
2022/07/06 22:39:35;;;;;;;2.25;0.15;;;;;;;22.72;41.56;102156.75;16128439;19;130038;-54
2022/07/06 22:44:57;;;;;;;0.45;0.20;;;;;;;22.71;41.49;102153.13;16128869;19;129388;-55
2022/07/06 22:50:20;;;;;;;0.82;0.10;;;;;;;22.71;41.46;102143.91;16130071;19;131861;-55
2022/07/06 22:55:42;;;;;;;0.10;0.10;;;;;;;22.70;41.48;102143.06;16129263;19;131679;-58
2022/07/06 23:01:04;;;;;;;0.68;0.20;;;;;;;22.70;41.51;102142.22;16121290;19;129997;-57
2022/07/06 23:06:26;;;;;;;0.63;0.20;;;;;;;22.69;41.42;102149.75;16121679;19;130515;-54
2022/07/06 23:11:48;;;;;;;2.55;0.22;;;;;;;22.68;41.51;102136.88;16126501;19;130516;-56
2022/07/06 23:17:10;;;;;;;1.73;0.30;;;;;;;22.68;41.62;102134.09;16119793;19;130582;-57
2022/07/06 23:22:32;;;;;;;0.10;0.10;;;;;;;22.67;41.70;102129.59;16126589;19;130178;-53
2022/07/06 23:27:54;;;;;;;0.35;0.20;;;;;;;22.66;41.67;102124.28;16123188;19;131456;-55
2022/07/06 23:33:16;;;;;;;0.10;0.10;;;;;;;22.65;41.54;102123.41;16130217;19;130074;-56
2022/07/06 23:38:38;;;;;;;0.22;0.22;;;;;;;22.65;41.38;102117.84;16143086;19;129364;-57
2022/07/06 23:44:00;;;;;;;0.25;0.15;;;;;;;22.64;41.43;102110.59;16146384;19;129527;-54
2022/07/06 23:49:22;;;;;;;0.35;0.20;;;;;;;22.64;41.26;102101.34;16145418;19;130590;-56
2022/07/06 23:54:44;;;;;;;0.30;0.20;;;;;;;22.64;41.64;102093.84;16144557;19;129324;-56
